sensor_id;sensor_type;location;lat;lon;timestamp;P1;P2;P0
70922;PMS5003;58573;28.942;-13.688;2023-05-07T00:00:38;12;10;
70922;PMS5003;58573;28.942;-13.688;2023-05-07T00:03:03;13;9;
70922;PMS5003;58573;28.942;-13.688;2023-05-07T00:05:28;8;8;
70922;PMS5003;58573;28.942;-13.688;2023-05-07T00:07:53;13;12;
70922;PMS5003;58573;28.942;-13.688;2023-05-07T00:10:19;11;11;
70922;PMS5003;58573;28.942;-13.688;2023-05-07T00:12:45;7;7;
70922;PMS5003;58573;28.942;-13.688;2023-05-07T00:15:10;10;10;
70922;PMS5003;58573;28.942;-13.688;2023-05-07T00:17:36;13;10;
70922;PMS5003;58573;28.942;-13.688;2023-05-07T00:20:01;10;9;
70922;PMS5003;58573;28.942;-13.688;2023-05-07T00:22:26;9;8;
70922;PMS5003;58573;28.942;-13.688;2023-05-07T00:24:52;10;9;
70922;PMS5003;58573;28.942;-13.688;2023-05-07T00:27:17;12;10;
70922;PMS5003;58573;28.942;-13.688;2023-05-07T00:29:43;10;10;
70922;PMS5003;58573;28.942;-13.688;2023-05-07T00:32:08;12;10;
70922;PMS5003;58573;28.942;-13.688;2023-05-07T00:34:34;9;7;
70922;PMS5003;58573;28.942;-13.688;2023-05-07T00:37:01;11;10;
70922;PMS5003;58573;28.942;-13.688;2023-05-07T00:39:24;11;9;
70922;PMS5003;58573;28.942;-13.688;2023-05-07T00:41:50;10;9;
70922;PMS5003;58573;28.942;-13.688;2023-05-07T00:44:15;8;8;
70922;PMS5003;58573;28.942;-13.688;2023-05-07T00:46:41;15;11;
70922;PMS5003;58573;28.942;-13.688;2023-05-07T00:49:06;11;9;
70922;PMS5003;58573;28.942;-13.688;2023-05-07T00:51:31;10;10;
70922;PMS5003;58573;28.942;-13.688;2023-05-07T00:53:57;9;8;
70922;PMS5003;58573;28.942;-13.688;2023-05-07T00:56:22;15;12;
70922;PMS5003;58573;28.942;-13.688;2023-05-07T00:58:47;8;6;
70922;PMS5003;58573;28.942;-13.688;2023-05-07T01:01:13;9;7;
70922;PMS5003;58573;28.942;-13.688;2023-05-07T01:03:38;11;8;
70922;PMS5003;58573;28.942;-13.688;2023-05-07T01:06:03;10;7;
70922;PMS5003;58573;28.942;-13.688;2023-05-07T01:08:29;8;8;
70922;PMS5003;58573;28.942;-13.688;2023-05-07T01:10:54;9;9;
70922;PMS5003;58573;28.942;-13.688;2023-05-07T01:13:19;8;8;
70922;PMS5003;58573;28.942;-13.688;2023-05-07T01:15:45;10;7;
70922;PMS5003;58573;28.942;-13.688;2023-05-07T01:18:10;13;12;
70922;PMS5003;58573;28.942;-13.688;2023-05-07T01:20:36;12;10;
70922;PMS5003;58573;28.942;-13.688;2023-05-07T01:23:01;8;8;
70922;PMS5003;58573;28.942;-13.688;2023-05-07T01:25:27;18;12;
70922;PMS5003;58573;28.942;-13.688;2023-05-07T01:27:52;11;8;
70922;PMS5003;58573;28.942;-13.688;2023-05-07T01:30:18;9;7;
70922;PMS5003;58573;28.942;-13.688;2023-05-07T01:32:44;10;9;
70922;PMS5003;58573;28.942;-13.688;2023-05-07T01:35:11;8;7;
70922;PMS5003;58573;28.942;-13.688;2023-05-07T01:37:34;9;8;
70922;PMS5003;58573;28.942;-13.688;2023-05-07T01:40:00;7;5;
70922;PMS5003;58573;28.942;-13.688;2023-05-07T01:42:25;10;8;
70922;PMS5003;58573;28.942;-13.688;2023-05-07T01:44:51;11;10;
70922;PMS5003;58573;28.942;-13.688;2023-05-07T01:47:16;10;9;
70922;PMS5003;58573;28.942;-13.688;2023-05-07T01:49:42;9;8;
70922;PMS5003;58573;28.942;-13.688;2023-05-07T01:52:09;10;8;
70922;PMS5003;58573;28.942;-13.688;2023-05-07T01:54:32;10;8;
70922;PMS5003;58573;28.942;-13.688;2023-05-07T01:56:58;15;13;
70922;PMS5003;58573;28.942;-13.688;2023-05-07T01:59:23;12;10;
70922;PMS5003;58573;28.942;-13.688;2023-05-07T02:01:48;8;8;
70922;PMS5003;58573;28.942;-13.688;2023-05-07T02:04:14;12;11;
70922;PMS5003;58573;28.942;-13.688;2023-05-07T02:06:39;10;8;
70922;PMS5003;58573;28.942;-13.688;2023-05-07T02:09:04;15;13;
70922;PMS5003;58573;28.942;-13.688;2023-05-07T02:11:30;9;8;
70922;PMS5003;58573;28.942;-13.688;2023-05-07T02:13:56;7;7;
70922;PMS5003;58573;28.942;-13.688;2023-05-07T02:16:21;11;11;
70922;PMS5003;58573;28.942;-13.688;2023-05-07T02:18:47;8;7;
70922;PMS5003;58573;28.942;-13.688;2023-05-07T02:21:12;10;9;
70922;PMS5003;58573;28.942;-13.688;2023-05-07T02:23:37;8;6;
70922;PMS5003;58573;28.942;-13.688;2023-05-07T02:26:03;10;10;
70922;PMS5003;58573;28.942;-13.688;2023-05-07T02:28:28;14;11;
70922;PMS5003;58573;28.942;-13.688;2023-05-07T02:30:53;12;9;
70922;PMS5003;58573;28.942;-13.688;2023-05-07T02:33:18;9;7;
70922;PMS5003;58573;28.942;-13.688;2023-05-07T02:35:44;10;8;
70922;PMS5003;58573;28.942;-13.688;2023-05-07T02:38:09;12;10;
70922;PMS5003;58573;28.942;-13.688;2023-05-07T02:40:34;13;11;
70922;PMS5003;58573;28.942;-13.688;2023-05-07T02:43:00;12;10;
70922;PMS5003;58573;28.942;-13.688;2023-05-07T02:45:26;8;8;
70922;PMS5003;58573;28.942;-13.688;2023-05-07T02:47:51;11;9;
70922;PMS5003;58573;28.942;-13.688;2023-05-07T02:50:17;10;6;
70922;PMS5003;58573;28.942;-13.688;2023-05-07T02:52:42;10;10;
70922;PMS5003;58573;28.942;-13.688;2023-05-07T02:55:08;9;6;
70922;PMS5003;58573;28.942;-13.688;2023-05-07T02:57:32;10;8;
70922;PMS5003;58573;28.942;-13.688;2023-05-07T02:59:58;9;7;
70922;PMS5003;58573;28.942;-13.688;2023-05-07T03:02:23;7;6;
70922;PMS5003;58573;28.942;-13.688;2023-05-07T03:04:49;8;7;
70922;PMS5003;58573;28.942;-13.688;2023-05-07T03:07:14;11;9;
70922;PMS5003;58573;28.942;-13.688;2023-05-07T03:09:40;9;8;
70922;PMS5003;58573;28.942;-13.688;2023-05-07T03:12:05;13;11;
70922;PMS5003;58573;28.942;-13.688;2023-05-07T03:14:31;12;9;
70922;PMS5003;58573;28.942;-13.688;2023-05-07T03:16:56;15;13;
70922;PMS5003;58573;28.942;-13.688;2023-05-07T03:19:21;9;9;
70922;PMS5003;58573;28.942;-13.688;2023-05-07T03:21:46;11;11;
70922;PMS5003;58573;28.942;-13.688;2023-05-07T03:24:12;13;11;
70922;PMS5003;58573;28.942;-13.688;2023-05-07T03:26:37;13;13;
70922;PMS5003;58573;28.942;-13.688;2023-05-07T03:29:03;8;7;
70922;PMS5003;58573;28.942;-13.688;2023-05-07T03:31:28;6;6;
70922;PMS5003;58573;28.942;-13.688;2023-05-07T03:33:54;13;9;
70922;PMS5003;58573;28.942;-13.688;2023-05-07T03:36:18;16;12;
70922;PMS5003;58573;28.942;-13.688;2023-05-07T03:38:44;8;7;
70922;PMS5003;58573;28.942;-13.688;2023-05-07T03:41:09;8;7;
70922;PMS5003;58573;28.942;-13.688;2023-05-07T03:43:34;6;6;
70922;PMS5003;58573;28.942;-13.688;2023-05-07T03:46:00;10;7;
70922;PMS5003;58573;28.942;-13.688;2023-05-07T03:48:25;8;7;
70922;PMS5003;58573;28.942;-13.688;2023-05-07T03:50:51;11;9;
70922;PMS5003;58573;28.942;-13.688;2023-05-07T03:53:16;8;5;
70922;PMS5003;58573;28.942;-13.688;2023-05-07T03:55:42;9;8;
70922;PMS5003;58573;28.942;-13.688;2023-05-07T03:58:08;11;9;
70922;PMS5003;58573;28.942;-13.688;2023-05-07T04:00:33;10;7;
70922;PMS5003;58573;28.942;-13.688;2023-05-07T04:02:58;11;10;
70922;PMS5003;58573;28.942;-13.688;2023-05-07T04:05:24;9;7;
70922;PMS5003;58573;28.942;-13.688;2023-05-07T04:07:49;15;8;
70922;PMS5003;58573;28.942;-13.688;2023-05-07T04:10:15;8;8;
70922;PMS5003;58573;28.942;-13.688;2023-05-07T04:12:40;9;9;
70922;PMS5003;58573;28.942;-13.688;2023-05-07T04:15:06;9;6;
70922;PMS5003;58573;28.942;-13.688;2023-05-07T04:17:31;12;11;
70922;PMS5003;58573;28.942;-13.688;2023-05-07T04:19:56;7;6;
70922;PMS5003;58573;28.942;-13.688;2023-05-07T04:22:21;10;9;
70922;PMS5003;58573;28.942;-13.688;2023-05-07T04:24:47;9;9;
70922;PMS5003;58573;28.942;-13.688;2023-05-07T04:27:12;17;12;
70922;PMS5003;58573;28.942;-13.688;2023-05-07T04:29:37;10;8;
70922;PMS5003;58573;28.942;-13.688;2023-05-07T04:32:03;7;7;
70922;PMS5003;58573;28.942;-13.688;2023-05-07T04:34:28;13;11;
70922;PMS5003;58573;28.942;-13.688;2023-05-07T04:36:57;7;7;
70922;PMS5003;58573;28.942;-13.688;2023-05-07T04:39:19;12;9;
70922;PMS5003;58573;28.942;-13.688;2023-05-07T04:41:44;16;12;
70922;PMS5003;58573;28.942;-13.688;2023-05-07T04:44:10;11;9;
70922;PMS5003;58573;28.942;-13.688;2023-05-07T04:46:35;9;8;
70922;PMS5003;58573;28.942;-13.688;2023-05-07T04:49:00;9;8;
70922;PMS5003;58573;28.942;-13.688;2023-05-07T04:51:26;11;10;
70922;PMS5003;58573;28.942;-13.688;2023-05-07T04:53:52;8;7;
70922;PMS5003;58573;28.942;-13.688;2023-05-07T04:56:18;11;8;
70922;PMS5003;58573;28.942;-13.688;2023-05-07T04:58:43;10;8;
70922;PMS5003;58573;28.942;-13.688;2023-05-07T05:01:09;14;12;
70922;PMS5003;58573;28.942;-13.688;2023-05-07T05:03:35;7;7;
70922;PMS5003;58573;28.942;-13.688;2023-05-07T05:06:00;10;7;
70922;PMS5003;58573;28.942;-13.688;2023-05-07T05:08:25;13;7;
70922;PMS5003;58573;28.942;-13.688;2023-05-07T05:10:51;13;9;
70922;PMS5003;58573;28.942;-13.688;2023-05-07T05:13:16;9;8;
70922;PMS5003;58573;28.942;-13.688;2023-05-07T05:15:41;10;10;
70922;PMS5003;58573;28.942;-13.688;2023-05-07T05:18:07;9;9;
70922;PMS5003;58573;28.942;-13.688;2023-05-07T05:20:32;9;7;
70922;PMS5003;58573;28.942;-13.688;2023-05-07T05:22:57;10;9;
70922;PMS5003;58573;28.942;-13.688;2023-05-07T05:25:22;14;12;
70922;PMS5003;58573;28.942;-13.688;2023-05-07T05:27:48;13;9;
70922;PMS5003;58573;28.942;-13.688;2023-05-07T05:30:14;13;8;
70922;PMS5003;58573;28.942;-13.688;2023-05-07T05:32:39;8;7;
70922;PMS5003;58573;28.942;-13.688;2023-05-07T05:35:04;10;9;
70922;PMS5003;58573;28.942;-13.688;2023-05-07T05:37:29;7;6;
70922;PMS5003;58573;28.942;-13.688;2023-05-07T05:39:54;11;9;
70922;PMS5003;58573;28.942;-13.688;2023-05-07T05:42:20;11;9;
70922;PMS5003;58573;28.942;-13.688;2023-05-07T05:44:46;8;7;
70922;PMS5003;58573;28.942;-13.688;2023-05-07T05:47:11;13;10;
70922;PMS5003;58573;28.942;-13.688;2023-05-07T05:49:37;9;9;
70922;PMS5003;58573;28.942;-13.688;2023-05-07T05:52:02;18;15;
70922;PMS5003;58573;28.942;-13.688;2023-05-07T05:54:27;8;6;
70922;PMS5003;58573;28.942;-13.688;2023-05-07T05:56:52;10;8;
70922;PMS5003;58573;28.942;-13.688;2023-05-07T05:59:18;12;11;
70922;PMS5003;58573;28.942;-13.688;2023-05-07T06:01:43;13;13;
70922;PMS5003;58573;28.942;-13.688;2023-05-07T06:04:08;14;10;
70922;PMS5003;58573;28.942;-13.688;2023-05-07T06:06:34;11;7;
70922;PMS5003;58573;28.942;-13.688;2023-05-07T06:08:59;10;9;
70922;PMS5003;58573;28.942;-13.688;2023-05-07T06:11:25;8;7;
70922;PMS5003;58573;28.942;-13.688;2023-05-07T06:13:50;11;7;
70922;PMS5003;58573;28.942;-13.688;2023-05-07T06:16:15;12;10;
70922;PMS5003;58573;28.942;-13.688;2023-05-07T06:18:40;9;7;
70922;PMS5003;58573;28.942;-13.688;2023-05-07T06:21:05;14;12;
70922;PMS5003;58573;28.942;-13.688;2023-05-07T06:23:31;7;6;
70922;PMS5003;58573;28.942;-13.688;2023-05-07T06:25:56;7;5;
70922;PMS5003;58573;28.942;-13.688;2023-05-07T06:28:22;7;6;
70922;PMS5003;58573;28.942;-13.688;2023-05-07T06:30:47;10;9;
70922;PMS5003;58573;28.942;-13.688;2023-05-07T06:33:12;7;4;
70922;PMS5003;58573;28.942;-13.688;2023-05-07T06:35:38;6;5;
70922;PMS5003;58573;28.942;-13.688;2023-05-07T06:38:04;11;10;
70922;PMS5003;58573;28.942;-13.688;2023-05-07T06:40:29;7;7;
70922;PMS5003;58573;28.942;-13.688;2023-05-07T06:42:55;11;10;
70922;PMS5003;58573;28.942;-13.688;2023-05-07T06:45:20;8;8;
70922;PMS5003;58573;28.942;-13.688;2023-05-07T06:47:46;7;5;
70922;PMS5003;58573;28.942;-13.688;2023-05-07T06:50:11;7;5;
70922;PMS5003;58573;28.942;-13.688;2023-05-07T06:52:36;13;10;
70922;PMS5003;58573;28.942;-13.688;2023-05-07T06:55:02;8;7;
70922;PMS5003;58573;28.942;-13.688;2023-05-07T06:57:27;10;8;
70922;PMS5003;58573;28.942;-13.688;2023-05-07T06:59:52;11;10;
70922;PMS5003;58573;28.942;-13.688;2023-05-07T07:02:18;10;8;
70922;PMS5003;58573;28.942;-13.688;2023-05-07T07:04:43;7;6;
70922;PMS5003;58573;28.942;-13.688;2023-05-07T07:07:08;10;9;
70922;PMS5003;58573;28.942;-13.688;2023-05-07T07:09:34;15;13;
70922;PMS5003;58573;28.942;-13.688;2023-05-07T07:11:59;12;11;
70922;PMS5003;58573;28.942;-13.688;2023-05-07T07:14:25;11;7;
70922;PMS5003;58573;28.942;-13.688;2023-05-07T07:16:50;9;9;
70922;PMS5003;58573;28.942;-13.688;2023-05-07T07:19:15;10;9;
70922;PMS5003;58573;28.942;-13.688;2023-05-07T07:21:41;11;10;
70922;PMS5003;58573;28.942;-13.688;2023-05-07T07:26:32;14;12;
70922;PMS5003;58573;28.942;-13.688;2023-05-07T07:28:57;11;7;
70922;PMS5003;58573;28.942;-13.688;2023-05-07T07:31:22;12;12;
70922;PMS5003;58573;28.942;-13.688;2023-05-07T07:33:48;9;7;
70922;PMS5003;58573;28.942;-13.688;2023-05-07T07:36:13;8;7;
70922;PMS5003;58573;28.942;-13.688;2023-05-07T07:38:38;7;6;
70922;PMS5003;58573;28.942;-13.688;2023-05-07T07:41:04;14;10;
70922;PMS5003;58573;28.942;-13.688;2023-05-07T07:43:30;6;5;
70922;PMS5003;58573;28.942;-13.688;2023-05-07T07:45:55;8;6;
70922;PMS5003;58573;28.942;-13.688;2023-05-07T07:48:20;10;6;
70922;PMS5003;58573;28.942;-13.688;2023-05-07T07:50:48;12;8;
70922;PMS5003;58573;28.942;-13.688;2023-05-07T07:53:11;9;8;
70922;PMS5003;58573;28.942;-13.688;2023-05-07T07:55:37;7;6;
70922;PMS5003;58573;28.942;-13.688;2023-05-07T07:58:01;8;7;
70922;PMS5003;58573;28.942;-13.688;2023-05-07T08:00:26;9;7;
70922;PMS5003;58573;28.942;-13.688;2023-05-07T08:02:52;11;7;
70922;PMS5003;58573;28.942;-13.688;2023-05-07T08:05:17;9;7;
70922;PMS5003;58573;28.942;-13.688;2023-05-07T08:07:42;8;7;
70922;PMS5003;58573;28.942;-13.688;2023-05-07T08:10:09;8;7;
70922;PMS5003;58573;28.942;-13.688;2023-05-07T08:12:34;6;5;
70922;PMS5003;58573;28.942;-13.688;2023-05-07T08:14:59;10;7;
70922;PMS5003;58573;28.942;-13.688;2023-05-07T08:17:24;8;6;
70922;PMS5003;58573;28.942;-13.688;2023-05-07T08:19:50;8;5;
70922;PMS5003;58573;28.942;-13.688;2023-05-07T08:22:15;7;6;
70922;PMS5003;58573;28.942;-13.688;2023-05-07T08:24:40;7;6;
70922;PMS5003;58573;28.942;-13.688;2023-05-07T08:27:06;8;7;
70922;PMS5003;58573;28.942;-13.688;2023-05-07T08:29:31;9;8;
70922;PMS5003;58573;28.942;-13.688;2023-05-07T08:31:57;7;7;
70922;PMS5003;58573;28.942;-13.688;2023-05-07T08:34:22;7;7;
70922;PMS5003;58573;28.942;-13.688;2023-05-07T08:36:47;8;8;
70922;PMS5003;58573;28.942;-13.688;2023-05-07T08:39:12;9;7;
70922;PMS5003;58573;28.942;-13.688;2023-05-07T08:41:38;9;8;
70922;PMS5003;58573;28.942;-13.688;2023-05-07T08:44:04;6;5;
70922;PMS5003;58573;28.942;-13.688;2023-05-07T08:46:30;5;5;
70922;PMS5003;58573;28.942;-13.688;2023-05-07T08:48:54;16;14;
70922;PMS5003;58573;28.942;-13.688;2023-05-07T08:51:21;10;8;
70922;PMS5003;58573;28.942;-13.688;2023-05-07T08:53:45;8;7;
70922;PMS5003;58573;28.942;-13.688;2023-05-07T08:56:10;9;7;
70922;PMS5003;58573;28.942;-13.688;2023-05-07T08:58:36;9;8;
70922;PMS5003;58573;28.942;-13.688;2023-05-07T09:01:01;7;7;
70922;PMS5003;58573;28.942;-13.688;2023-05-07T09:03:26;5;4;
70922;PMS5003;58573;28.942;-13.688;2023-05-07T09:05:52;11;8;
70922;PMS5003;58573;28.942;-13.688;2023-05-07T09:08:17;7;6;
70922;PMS5003;58573;28.942;-13.688;2023-05-07T09:10:43;7;5;
70922;PMS5003;58573;28.942;-13.688;2023-05-07T09:13:08;5;4;
70922;PMS5003;58573;28.942;-13.688;2023-05-07T09:15:33;7;6;
70922;PMS5003;58573;28.942;-13.688;2023-05-07T09:17:59;5;4;
70922;PMS5003;58573;28.942;-13.688;2023-05-07T09:20:24;6;5;
70922;PMS5003;58573;28.942;-13.688;2023-05-07T09:22:49;6;5;
70922;PMS5003;58573;28.942;-13.688;2023-05-07T09:25:14;11;8;
70922;PMS5003;58573;28.942;-13.688;2023-05-07T09:27:41;8;6;
70922;PMS5003;58573;28.942;-13.688;2023-05-07T09:30:05;9;7;
70922;PMS5003;58573;28.942;-13.688;2023-05-07T09:32:30;8;7;
70922;PMS5003;58573;28.942;-13.688;2023-05-07T09:34:55;7;6;
70922;PMS5003;58573;28.942;-13.688;2023-05-07T09:37:20;8;6;
70922;PMS5003;58573;28.942;-13.688;2023-05-07T09:39:46;6;4;
70922;PMS5003;58573;28.942;-13.688;2023-05-07T09:42:10;7;6;
70922;PMS5003;58573;28.942;-13.688;2023-05-07T09:44:35;5;4;
70922;PMS5003;58573;28.942;-13.688;2023-05-07T09:47:01;4;4;
70922;PMS5003;58573;28.942;-13.688;2023-05-07T09:49:28;7;4;
70922;PMS5003;58573;28.942;-13.688;2023-05-07T09:51:52;7;6;
70922;PMS5003;58573;28.942;-13.688;2023-05-07T09:54:17;7;6;
70922;PMS5003;58573;28.942;-13.688;2023-05-07T09:56:42;4;4;
70922;PMS5003;58573;28.942;-13.688;2023-05-07T09:59:07;6;6;
70922;PMS5003;58573;28.942;-13.688;2023-05-07T10:01:32;7;6;
70922;PMS5003;58573;28.942;-13.688;2023-05-07T10:03:58;6;6;
70922;PMS5003;58573;28.942;-13.688;2023-05-07T10:06:23;5;4;
70922;PMS5003;58573;28.942;-13.688;2023-05-07T10:08:48;9;6;
70922;PMS5003;58573;28.942;-13.688;2023-05-07T10:11:13;9;7;
70922;PMS5003;58573;28.942;-13.688;2023-05-07T10:13:38;9;7;
70922;PMS5003;58573;28.942;-13.688;2023-05-07T10:16:04;6;5;
70922;PMS5003;58573;28.942;-13.688;2023-05-07T10:18:29;9;7;
70922;PMS5003;58573;28.942;-13.688;2023-05-07T10:20:54;7;6;
70922;PMS5003;58573;28.942;-13.688;2023-05-07T10:23:23;7;6;
70922;PMS5003;58573;28.942;-13.688;2023-05-07T10:25:45;3;3;
70922;PMS5003;58573;28.942;-13.688;2023-05-07T10:28:11;6;4;
70922;PMS5003;58573;28.942;-13.688;2023-05-07T10:30:40;9;5;
70922;PMS5003;58573;28.942;-13.688;2023-05-07T10:33:03;5;3;
70922;PMS5003;58573;28.942;-13.688;2023-05-07T10:35:29;5;4;
70922;PMS5003;58573;28.942;-13.688;2023-05-07T10:37:52;5;4;
70922;PMS5003;58573;28.942;-13.688;2023-05-07T10:40:17;6;5;
70922;PMS5003;58573;28.942;-13.688;2023-05-07T10:45:11;5;4;
70922;PMS5003;58573;28.942;-13.688;2023-05-07T10:47:34;4;4;
70922;PMS5003;58573;28.942;-13.688;2023-05-07T10:52:24;5;4;
70922;PMS5003;58573;28.942;-13.688;2023-05-07T10:55:18;5;4;
70922;PMS5003;58573;28.942;-13.688;2023-05-07T10:59:40;4;4;
70922;PMS5003;58573;28.942;-13.688;2023-05-07T11:02:06;3;2;
70922;PMS5003;58573;28.942;-13.688;2023-05-07T11:04:32;5;4;
70922;PMS5003;58573;28.942;-13.688;2023-05-07T11:09:22;7;5;
70922;PMS5003;58573;28.942;-13.688;2023-05-07T11:11:48;2;2;
70922;PMS5003;58573;28.942;-13.688;2023-05-07T11:14:13;6;6;
70922;PMS5003;58573;28.942;-13.688;2023-05-07T11:16:38;7;5;
70922;PMS5003;58573;28.942;-13.688;2023-05-07T11:19:04;15;13;
70922;PMS5003;58573;28.942;-13.688;2023-05-07T11:21:33;3;3;
70922;PMS5003;58573;28.942;-13.688;2023-05-07T11:23:56;4;2;
70922;PMS5003;58573;28.942;-13.688;2023-05-07T11:26:19;6;4;
70922;PMS5003;58573;28.942;-13.688;2023-05-07T11:28:45;4;4;
70922;PMS5003;58573;28.942;-13.688;2023-05-07T11:31:10;7;5;
70922;PMS5003;58573;28.942;-13.688;2023-05-07T11:33:35;5;4;
70922;PMS5003;58573;28.942;-13.688;2023-05-07T11:36:02;6;5;
70922;PMS5003;58573;28.942;-13.688;2023-05-07T11:38:26;11;9;
70922;PMS5003;58573;28.942;-13.688;2023-05-07T11:40:51;5;5;
70922;PMS5003;58573;28.942;-13.688;2023-05-07T11:43:16;9;7;
70922;PMS5003;58573;28.942;-13.688;2023-05-07T11:45:41;7;5;
70922;PMS5003;58573;28.942;-13.688;2023-05-07T11:48:07;6;5;
70922;PMS5003;58573;28.942;-13.688;2023-05-07T11:50:33;7;7;
70922;PMS5003;58573;28.942;-13.688;2023-05-07T11:52:58;7;6;
70922;PMS5003;58573;28.942;-13.688;2023-05-07T11:55:24;4;4;
70922;PMS5003;58573;28.942;-13.688;2023-05-07T11:57:50;5;5;
70922;PMS5003;58573;28.942;-13.688;2023-05-07T12:00:16;10;8;
70922;PMS5003;58573;28.942;-13.688;2023-05-07T12:02:42;4;4;
70922;PMS5003;58573;28.942;-13.688;2023-05-07T12:05:07;3;2;
70922;PMS5003;58573;28.942;-13.688;2023-05-07T12:07:33;6;6;
70922;PMS5003;58573;28.942;-13.688;2023-05-07T12:09:58;3;3;
70922;PMS5003;58573;28.942;-13.688;2023-05-07T12:12:23;3;3;
70922;PMS5003;58573;28.942;-13.688;2023-05-07T12:14:49;5;4;
70922;PMS5003;58573;28.942;-13.688;2023-05-07T12:17:14;5;4;
70922;PMS5003;58573;28.942;-13.688;2023-05-07T12:19:41;4;4;
70922;PMS5003;58573;28.942;-13.688;2023-05-07T12:22:05;3;3;
70922;PMS5003;58573;28.942;-13.688;2023-05-07T12:26:56;6;5;
70922;PMS5003;58573;28.942;-13.688;2023-05-07T12:29:21;6;5;
70922;PMS5003;58573;28.942;-13.688;2023-05-07T12:31:47;8;5;
70922;PMS5003;58573;28.942;-13.688;2023-05-07T12:34:12;7;6;
70922;PMS5003;58573;28.942;-13.688;2023-05-07T12:36:38;5;3;
70922;PMS5003;58573;28.942;-13.688;2023-05-07T12:39:04;5;2;
70922;PMS5003;58573;28.942;-13.688;2023-05-07T12:41:28;8;7;
70922;PMS5003;58573;28.942;-13.688;2023-05-07T12:43:56;7;4;
70922;PMS5003;58573;28.942;-13.688;2023-05-07T12:46:19;9;5;
70922;PMS5003;58573;28.942;-13.688;2023-05-07T12:48:44;4;3;
70922;PMS5003;58573;28.942;-13.688;2023-05-07T12:51:10;5;3;
70922;PMS5003;58573;28.942;-13.688;2023-05-07T12:53:39;6;4;
70922;PMS5003;58573;28.942;-13.688;2023-05-07T12:56:01;4;3;
70922;PMS5003;58573;28.942;-13.688;2023-05-07T12:58:26;6;4;
70922;PMS5003;58573;28.942;-13.688;2023-05-07T13:00:51;5;4;
70922;PMS5003;58573;28.942;-13.688;2023-05-07T13:03:23;6;4;
70922;PMS5003;58573;28.942;-13.688;2023-05-07T13:05:42;2;2;
70922;PMS5003;58573;28.942;-13.688;2023-05-07T13:08:08;6;4;
70922;PMS5003;58573;28.942;-13.688;2023-05-07T13:10:33;4;3;
70922;PMS5003;58573;28.942;-13.688;2023-05-07T13:12:58;4;3;
70922;PMS5003;58573;28.942;-13.688;2023-05-07T13:15:24;4;3;
70922;PMS5003;58573;28.942;-13.688;2023-05-07T13:17:49;7;6;
70922;PMS5003;58573;28.942;-13.688;2023-05-07T13:20:14;6;4;
70922;PMS5003;58573;28.942;-13.688;2023-05-07T13:22:39;5;5;
70922;PMS5003;58573;28.942;-13.688;2023-05-07T13:25:05;2;2;
70922;PMS5003;58573;28.942;-13.688;2023-05-07T13:27:30;4;4;
70922;PMS5003;58573;28.942;-13.688;2023-05-07T13:29:56;6;4;
70922;PMS5003;58573;28.942;-13.688;2023-05-07T13:32:21;5;2;
70922;PMS5003;58573;28.942;-13.688;2023-05-07T13:34:46;6;5;
70922;PMS5003;58573;28.942;-13.688;2023-05-07T13:37:12;5;4;
70922;PMS5003;58573;28.942;-13.688;2023-05-07T13:39:37;3;3;
70922;PMS5003;58573;28.942;-13.688;2023-05-07T13:42:02;5;3;
70922;PMS5003;58573;28.942;-13.688;2023-05-07T13:44:28;4;3;
70922;PMS5003;58573;28.942;-13.688;2023-05-07T13:46:53;3;2;
70922;PMS5003;58573;28.942;-13.688;2023-05-07T13:49:18;4;3;
70922;PMS5003;58573;28.942;-13.688;2023-05-07T13:51:44;4;4;
70922;PMS5003;58573;28.942;-13.688;2023-05-07T13:54:09;3;3;
70922;PMS5003;58573;28.942;-13.688;2023-05-07T13:56:34;4;3;
70922;PMS5003;58573;28.942;-13.688;2023-05-07T13:58:59;5;5;
70922;PMS5003;58573;28.942;-13.688;2023-05-07T14:01:24;3;3;
70922;PMS5003;58573;28.942;-13.688;2023-05-07T14:03:50;2;2;
70922;PMS5003;58573;28.942;-13.688;2023-05-07T14:06:16;2;2;
70922;PMS5003;58573;28.942;-13.688;2023-05-07T14:08:41;4;4;
70922;PMS5003;58573;28.942;-13.688;2023-05-07T14:11:06;4;3;
70922;PMS5003;58573;28.942;-13.688;2023-05-07T14:13:31;4;4;
70922;PMS5003;58573;28.942;-13.688;2023-05-07T14:15:57;3;3;
70922;PMS5003;58573;28.942;-13.688;2023-05-07T14:18:22;7;7;
70922;PMS5003;58573;28.942;-13.688;2023-05-07T14:20:48;4;1;
70922;PMS5003;58573;28.942;-13.688;2023-05-07T14:23:13;5;5;
70922;PMS5003;58573;28.942;-13.688;2023-05-07T14:25:38;4;4;
70922;PMS5003;58573;28.942;-13.688;2023-05-07T14:28:04;4;4;
70922;PMS5003;58573;28.942;-13.688;2023-05-07T14:30:29;5;4;
70922;PMS5003;58573;28.942;-13.688;2023-05-07T14:32:54;4;4;
70922;PMS5003;58573;28.942;-13.688;2023-05-07T14:35:20;3;2;
70922;PMS5003;58573;28.942;-13.688;2023-05-07T14:37:45;3;3;
70922;PMS5003;58573;28.942;-13.688;2023-05-07T14:40:11;5;3;
70922;PMS5003;58573;28.942;-13.688;2023-05-07T14:42:36;5;4;
70922;PMS5003;58573;28.942;-13.688;2023-05-07T14:45:02;2;2;
70922;PMS5003;58573;28.942;-13.688;2023-05-07T14:47:27;5;3;
70922;PMS5003;58573;28.942;-13.688;2023-05-07T14:49:52;4;3;
70922;PMS5003;58573;28.942;-13.688;2023-05-07T14:52:17;3;2;
70922;PMS5003;58573;28.942;-13.688;2023-05-07T14:54:43;1;1;
70922;PMS5003;58573;28.942;-13.688;2023-05-07T14:57:08;2;1;
70922;PMS5003;58573;28.942;-13.688;2023-05-07T14:59:33;6;3;
70922;PMS5003;58573;28.942;-13.688;2023-05-07T15:01:59;3;2;
70922;PMS5003;58573;28.942;-13.688;2023-05-07T15:04:24;3;2;
70922;PMS5003;58573;28.942;-13.688;2023-05-07T15:06:49;4;2;
70922;PMS5003;58573;28.942;-13.688;2023-05-07T15:09:15;3;2;
70922;PMS5003;58573;28.942;-13.688;2023-05-07T15:11:40;2;2;
70922;PMS5003;58573;28.942;-13.688;2023-05-07T15:14:05;3;2;
70922;PMS5003;58573;28.942;-13.688;2023-05-07T15:16:30;5;3;
70922;PMS5003;58573;28.942;-13.688;2023-05-07T15:18:56;3;3;
70922;PMS5003;58573;28.942;-13.688;2023-05-07T15:21:21;3;3;
70922;PMS5003;58573;28.942;-13.688;2023-05-07T15:23:47;4;3;
70922;PMS5003;58573;28.942;-13.688;2023-05-07T15:26:12;1;1;
70922;PMS5003;58573;28.942;-13.688;2023-05-07T15:28:38;6;6;
70922;PMS5003;58573;28.942;-13.688;2023-05-07T15:31:03;2;1;
70922;PMS5003;58573;28.942;-13.688;2023-05-07T15:33:29;3;2;
70922;PMS5003;58573;28.942;-13.688;2023-05-07T15:35:54;2;2;
70922;PMS5003;58573;28.942;-13.688;2023-05-07T15:38:19;3;2;
70922;PMS5003;58573;28.942;-13.688;2023-05-07T15:40:45;2;2;
70922;PMS5003;58573;28.942;-13.688;2023-05-07T15:43:11;0;0;
70922;PMS5003;58573;28.942;-13.688;2023-05-07T15:45:38;1;1;
70922;PMS5003;58573;28.942;-13.688;2023-05-07T15:48:01;2;2;
70922;PMS5003;58573;28.942;-13.688;2023-05-07T15:50:26;2;1;
70922;PMS5003;58573;28.942;-13.688;2023-05-07T15:52:52;3;3;
70922;PMS5003;58573;28.942;-13.688;2023-05-07T15:55:17;2;2;
70922;PMS5003;58573;28.942;-13.688;2023-05-07T15:57:43;3;2;
70922;PMS5003;58573;28.942;-13.688;2023-05-07T16:00:08;1;0;
70922;PMS5003;58573;28.942;-13.688;2023-05-07T16:02:33;2;1;
70922;PMS5003;58573;28.942;-13.688;2023-05-07T16:04:59;2;1;
70922;PMS5003;58573;28.942;-13.688;2023-05-07T16:07:25;2;1;
70922;PMS5003;58573;28.942;-13.688;2023-05-07T16:09:50;2;2;